Time;durP1;ratioP1;P1;durP2;ratioP2;P2;SDS_P1;SDS_P2;PMS_P1;PMS_P2;Temp;Humidity;BMP_temperature;BMP_pressure;BME280_temperature;BME280_humidity;BME280_pressure;Samples;Min_cycle;Max_cycle;Signal;HPM_P1;HPM_P2
2022/03/24 00:02:06;;;;;;;42.80;24.50;;;5.60;99.90;;;;;;5052578;28;20037;-79
2022/03/24 00:04:32;;;;;;;40.67;23.45;;;5.60;99.90;;;;;;5053376;28;20139;-80
2022/03/24 00:06:58;;;;;;;43.83;25.10;;;5.60;99.90;;;;;;5054661;28;20086;-79
2022/03/24 00:09:24;;;;;;;41.75;25.30;;;5.60;99.90;;;;;;5042560;28;20048;-78
2022/03/24 00:11:49;;;;;;;46.53;24.27;;;6.20;99.90;;;;;;5059437;28;20443;-79
2022/03/24 00:14:16;;;;;;;44.38;25.15;;;5.50;99.90;;;;;;5037040;28;20052;-81
2022/03/24 00:16:43;;;;;;;42.47;24.55;;;5.50;99.90;;;;;;5054537;28;20080;-81
2022/03/24 00:19:09;;;;;;;39.42;24.77;;;5.50;99.90;;;;;;5035034;28;20080;-81
2022/03/24 00:21:35;;;;;;;45.00;26.33;;;5.40;99.90;;;;;;5055049;28;20393;-80
2022/03/24 00:24:01;;;;;;;45.83;26.58;;;5.40;99.90;;;;;;5070898;28;20083;-80
2022/03/24 00:26:27;;;;;;;29.50;17.00;;;5.40;99.90;;;;;;5069786;28;20041;-78
2022/03/24 00:28:52;;;;;;;24.88;15.07;;;5.40;99.90;;;;;;5070916;28;20059;-79
2022/03/24 00:31:18;;;;;;;27.95;15.20;;;5.20;99.90;;;;;;5069329;28;20041;-80
2022/03/24 00:33:45;;;;;;;26.10;15.18;;;5.20;99.90;;;;;;5057457;28;20095;-79
2022/03/24 00:36:10;;;;;;;32.25;16.58;;;5.00;99.90;;;;;;5058240;28;20114;-79
2022/03/24 00:38:40;;;;;;;29.45;17.38;;;5.00;99.90;;;;;;5057341;28;20432;-79
2022/03/24 00:41:05;;;;;;;33.00;18.30;;;5.00;99.90;;;;;;5056586;28;20037;-81
2022/03/24 00:43:32;;;;;;;35.33;18.20;;;5.70;99.90;;;;;;5056298;28;20555;-80
2022/03/24 00:45:59;;;;;;;38.17;22.45;;;5.00;99.90;;;;;;5038537;28;20037;-81
2022/03/24 00:48:25;;;;;;;44.67;24.92;;;5.60;99.90;;;;;;5056172;28;20069;-80
2022/03/24 00:50:51;;;;;;;42.03;24.02;;;4.90;99.90;;;;;;5037894;28;20056;-80
2022/03/24 00:53:17;;;;;;;42.78;24.98;;;5.40;99.90;;;;;;5056111;28;20049;-80
2022/03/24 00:55:43;;;;;;;43.00;24.52;;;4.80;99.90;;;;;;5056100;28;20036;-81
2022/03/24 00:58:10;;;;;;;43.75;25.35;;;4.80;99.90;;;;;;5038218;28;20118;-80
2022/03/24 01:00:38;;;;;;;44.53;25.23;;;4.80;99.90;;;;;;5055952;28;20511;-80
2022/03/24 01:03:07;;;;;;;41.75;25.45;;;4.80;99.90;;;;;;5056054;28;20124;-80
2022/03/24 01:05:37;;;;;;;42.38;24.52;;;4.80;99.90;;;;;;5067248;28;20049;-81
2022/03/24 01:08:05;;;;;;;50.50;26.73;;;4.70;99.90;;;;;;5049217;28;20083;-78
2022/03/24 01:10:32;;;;;;;42.20;25.25;;;4.80;99.90;;;;;;5038521;28;20135;-80
2022/03/24 01:12:59;;;;;;;44.35;25.70;;;4.70;99.90;;;;;;5056231;28;20091;-81
2022/03/24 01:15:26;;;;;;;43.35;24.70;;;4.70;99.90;;;;;;5038188;28;20056;-80
2022/03/24 01:17:53;;;;;;;48.03;27.10;;;4.70;99.90;;;;;;5055923;28;20049;-79
2022/03/24 01:20:19;;;;;;;46.30;26.33;;;4.70;99.90;;;;;;5055557;28;20492;-80
2022/03/24 01:22:45;;;;;;;44.80;25.08;;;4.70;99.90;;;;;;5055029;28;20041;-81
2022/03/24 01:25:11;;;;;;;46.47;25.88;;;4.60;99.90;;;;;;5054228;28;20496;-80
2022/03/24 01:27:40;;;;;;;49.50;27.83;;;4.60;99.90;;;;;;5021043;28;20053;-77
2022/03/24 01:30:09;;;;;;;46.28;26.65;;;4.60;99.90;;;;;;5055794;28;20049;-80
2022/03/24 01:32:35;;;;;;;43.72;26.27;;;4.60;99.90;;;;;;5055103;28;20052;-80
2022/03/24 01:35:07;;;;;;;46.10;27.27;;;4.50;99.90;;;;;;5037899;28;20057;-81
2022/03/24 01:37:36;;;;;;;51.80;27.10;;;4.50;99.90;;;;;;5055024;28;20135;-80
2022/03/24 01:40:05;;;;;;;47.70;26.45;;;4.50;99.90;;;;;;5037486;28;20061;-80
2022/03/24 01:42:34;;;;;;;45.63;27.25;;;4.40;99.90;;;;;;5054215;28;20056;-81
2022/03/24 01:45:01;;;;;;;49.05;29.17;;;4.40;99.90;;;;;;5037594;28;20053;-81
2022/03/24 01:47:26;;;;;;;48.67;28.38;;;4.40;99.90;;;;;;5054919;28;20044;-80
2022/03/24 01:49:58;;;;;;;48.20;27.42;;;4.30;99.90;;;;;;5036974;28;20064;-79
2022/03/24 01:52:24;;;;;;;48.70;27.00;;;4.40;99.90;;;;;;5037431;28;20107;-79
2022/03/24 01:54:54;;;;;;;48.13;27.95;;;4.30;99.90;;;;;;5054958;28;20041;-79
2022/03/24 01:57:21;;;;;;;49.25;28.98;;;4.30;99.90;;;;;;5055133;28;20072;-80
2022/03/24 01:59:49;;;;;;;49.60;26.15;;;4.30;99.90;;;;;;5055244;28;20115;-80
2022/03/24 02:02:14;;;;;;;47.85;26.42;;;4.60;99.90;;;;;;5020669;28;20051;-80
2022/03/24 02:04:42;;;;;;;47.05;25.60;;;5.30;99.90;;;;;;5037588;28;20128;-78
2022/03/24 02:07:08;;;;;;;46.13;26.48;;;4.70;99.90;;;;;;5055627;28;20045;-80
2022/03/24 02:09:35;;;;;;;51.15;28.92;;;4.20;99.90;;;;;;5064928;28;20075;-78
2022/03/24 02:12:09;;;;;;;46.95;27.50;;;4.10;99.90;;;;;;5054687;28;20048;-80
2022/03/24 02:14:36;;;;;;;48.00;27.27;;;4.10;99.90;;;;;;5073140;28;20072;-80
2022/03/24 02:17:03;;;;;;;46.65;26.85;;;4.00;99.90;;;;;;5054724;28;20064;-78
2022/03/24 02:19:29;;;;;;;52.53;29.17;;;4.00;99.90;;;;;;5058662;28;20079;-80
2022/03/24 02:21:58;;;;;;;49.28;28.90;;;4.00;99.90;;;;;;5037320;28;20076;-80
2022/03/24 02:24:25;;;;;;;51.03;29.65;;;4.40;99.90;;;;;;5037309;28;20048;-79
2022/03/24 02:26:52;;;;;;;51.50;29.02;;;4.00;99.90;;;;;;5054498;28;20506;-80
2022/03/24 02:29:20;;;;;;;49.08;30.35;;;4.00;99.90;;;;;;5054562;28;20088;-80
2022/03/24 02:31:48;;;;;;;56.47;30.13;;;4.00;99.90;;;;;;5054398;28;20045;-80
2022/03/24 02:34:37;;;;;;;47.17;28.30;;;4.00;99.90;;;;;;5054150;28;20045;-79
2022/03/24 02:37:23;;;;;;;49.00;27.20;;;3.90;99.90;;;;;;5054548;28;20064;-80
2022/03/24 02:39:57;;;;;;;49.72;27.13;;;3.90;99.90;;;;;;5054500;28;20053;-80
2022/03/24 02:42:25;;;;;;;48.63;27.70;;;3.90;99.90;;;;;;5035888;28;20515;-80
2022/03/24 02:44:57;;;;;;;49.90;29.00;;;3.90;99.90;;;;;;5036151;28;20124;-80
2022/03/24 02:47:23;;;;;;;49.77;28.43;;;3.80;99.90;;;;;;5053811;28;20141;-79
2022/03/24 02:49:51;;;;;;;51.13;29.27;;;3.80;99.90;;;;;;5054005;28;20053;-80
2022/03/24 02:52:17;;;;;;;54.85;29.15;;;3.80;99.90;;;;;;5036600;28;20080;-78
2022/03/24 02:54:43;;;;;;;47.30;28.13;;;3.70;99.90;;;;;;5065604;28;20048;-77
2022/03/24 02:57:09;;;;;;;47.47;27.65;;;3.70;99.90;;;;;;5068097;28;20033;-78
2022/03/24 02:59:36;;;;;;;46.95;26.30;;;3.70;99.90;;;;;;5054471;28;20154;-80
2022/03/24 03:02:08;;;;;;;49.70;28.00;;;4.30;99.90;;;;;;5054190;28;20060;-79
2022/03/24 03:04:36;;;;;;;47.92;27.15;;;3.70;99.90;;;;;;5053896;28;20499;-80
2022/03/24 03:07:04;;;;;;;50.63;28.17;;;3.70;99.90;;;;;;5054003;28;20056;-80
2022/03/24 03:09:31;;;;;;;52.50;28.75;;;3.60;99.90;;;;;;5036207;28;20163;-78
2022/03/24 03:11:58;;;;;;;49.05;28.98;;;3.60;99.90;;;;;;5053627;28;20045;-79
2022/03/24 03:14:24;;;;;;;51.45;27.33;;;3.60;99.90;;;;;;5053180;28;20877;-80
2022/03/24 03:16:50;;;;;;;52.47;29.08;;;3.60;99.90;;;;;;5035614;28;20507;-78
2022/03/24 03:19:19;;;;;;;49.97;29.15;;;4.60;99.90;;;;;;5053784;28;20044;-79
2022/03/24 03:21:46;;;;;;;54.08;30.30;;;3.50;99.90;;;;;;5053487;28;20119;-79
2022/03/24 03:24:12;;;;;;;54.83;30.80;;;3.50;99.90;;;;;;5053444;28;20466;-77
2022/03/24 03:26:39;;;;;;;47.38;27.73;;;3.50;99.90;;;;;;5054100;28;20047;-79
2022/03/24 03:29:06;;;;;;;50.00;28.20;;;3.40;99.90;;;;;;5035076;28;20044;-79
2022/03/24 03:31:34;;;;;;;45.63;26.55;;;3.90;99.90;;;;;;5053099;28;20105;-78
2022/03/24 03:34:01;;;;;;;47.70;28.33;;;3.40;99.90;;;;;;5053170;28;20481;-79
2022/03/24 03:36:27;;;;;;;51.72;28.30;;;3.40;99.90;;;;;;5053240;28;20037;-78
2022/03/24 03:38:52;;;;;;;53.22;30.38;;;3.40;99.90;;;;;;5035349;28;20064;-78
2022/03/24 03:41:22;;;;;;;47.92;28.02;;;3.40;99.90;;;;;;5035526;28;20071;-80
2022/03/24 03:43:48;;;;;;;48.80;28.73;;;3.40;99.90;;;;;;5052785;28;20123;-80
2022/03/24 03:46:14;;;;;;;49.88;28.80;;;3.40;99.90;;;;;;5035762;28;20041;-78
2022/03/24 03:48:40;;;;;;;48.00;26.75;;;3.40;99.90;;;;;;5052850;28;20106;-79
2022/03/24 03:51:08;;;;;;;53.17;28.98;;;3.30;99.90;;;;;;5052761;28;20488;-78
2022/03/24 03:53:35;;;;;;;51.35;29.38;;;3.30;99.90;;;;;;5052673;28;20123;-78
2022/03/24 03:56:02;;;;;;;49.95;29.65;;;3.30;99.90;;;;;;5052927;28;20045;-79
2022/03/24 03:58:28;;;;;;;55.75;31.17;;;3.30;99.90;;;;;;5052640;28;20045;-78
2022/03/24 04:00:55;;;;;;;64.43;32.05;;;3.60;99.90;;;;;;5052145;28;20044;-78
2022/03/24 04:03:29;;;;;;;55.13;32.42;;;3.30;99.90;;;;;;5052777;28;20053;-79
2022/03/24 04:06:08;;;;;;;60.80;34.72;;;3.20;99.90;;;;;;5052315;28;20037;-77
2022/03/24 04:08:35;;;;;;;57.58;33.45;;;3.20;99.90;;;;;;5052690;28;20052;-78
2022/03/24 04:11:01;;;;;;;59.53;34.38;;;3.20;99.90;;;;;;5034782;28;20400;-79
2022/03/24 04:13:27;;;;;;;58.03;32.60;;;3.20;99.90;;;;;;5052524;28;20037;-80
2022/03/24 04:15:54;;;;;;;64.75;34.63;;;3.10;99.90;;;;;;5052312;28;20515;-78
2022/03/24 04:18:20;;;;;;;56.90;33.38;;;3.20;99.90;;;;;;5052480;28;20393;-78
2022/03/24 04:20:46;;;;;;;58.78;32.50;;;3.50;99.90;;;;;;5034631;28;20067;-79
2022/03/24 04:23:11;;;;;;;45.75;26.55;;;3.20;99.90;;;;;;5052560;28;20033;-79
2022/03/24 04:25:38;;;;;;;39.00;22.98;;;3.20;99.90;;;;;;5052555;28;20037;-79
2022/03/24 04:28:05;;;;;;;35.20;20.40;;;3.10;99.90;;;;;;5052246;28;20044;-78
2022/03/24 04:30:33;;;;;;;35.28;20.20;;;3.10;99.90;;;;;;5052680;28;20048;-78
2022/03/24 04:32:59;;;;;;;37.72;22.38;;;3.10;99.90;;;;;;5052095;28;20045;-79
2022/03/24 04:35:26;;;;;;;33.42;20.05;;;3.10;99.90;;;;;;5052273;28;20041;-78
2022/03/24 04:37:52;;;;;;;33.42;19.42;;;3.00;99.90;;;;;;5033757;28;20092;-79
2022/03/24 04:40:19;;;;;;;31.60;19.00;;;3.00;99.90;;;;;;5052444;28;20041;-79
2022/03/24 04:42:55;;;;;;;39.67;22.73;;;3.00;99.90;;;;;;5034612;28;20045;-78
2022/03/24 04:45:21;;;;;;;42.47;24.73;;;3.00;99.90;;;;;;5052971;28;20136;-77
2022/03/24 04:47:48;;;;;;;46.42;25.75;;;3.00;99.90;;;;;;5053674;28;20037;-79
2022/03/24 04:50:16;;;;;;;51.28;25.73;;;3.00;99.90;;;;;;5066743;28;20037;-78
2022/03/24 04:52:42;;;;;;;57.17;28.92;;;2.90;99.90;;;;;;5068739;28;20048;-79
2022/03/24 04:55:09;;;;;;;56.53;29.40;;;2.90;99.90;;;;;;5056458;28;20416;-79
2022/03/24 04:57:35;;;;;;;55.05;30.02;;;2.90;99.90;;;;;;5052692;28;20124;-77
2022/03/24 05:00:01;;;;;;;52.17;29.58;;;2.90;99.90;;;;;;5052585;28;20468;-79
2022/03/24 05:02:26;;;;;;;53.05;28.02;;;2.80;99.90;;;;;;5018373;28;20388;-79
2022/03/24 05:04:54;;;;;;;55.08;28.90;;;2.80;99.90;;;;;;5034146;28;20136;-79
2022/03/24 05:07:20;;;;;;;50.25;26.98;;;2.80;99.90;;;;;;5051811;28;20041;-80
2022/03/24 05:09:45;;;;;;;58.30;30.90;;;2.80;99.90;;;;;;5052044;28;20049;-80
2022/03/24 05:12:11;;;;;;;53.13;26.55;;;2.80;99.90;;;;;;5034240;28;20453;-79
2022/03/24 05:14:37;;;;;;;46.75;25.42;;;2.80;99.90;;;;;;5052259;28;20045;-79
2022/03/24 05:17:03;;;;;;;46.42;24.70;;;2.80;99.90;;;;;;5052084;28;20454;-80
2022/03/24 05:19:31;;;;;;;51.70;24.73;;;2.80;99.90;;;;;;5055031;28;20083;-79
2022/03/24 05:21:57;;;;;;;54.40;27.52;;;2.80;99.90;;;;;;5055818;28;20107;-80
2022/03/24 05:24:24;;;;;;;49.22;26.13;;;2.80;99.90;;;;;;5037777;28;20044;-78
2022/03/24 05:26:50;;;;;;;57.78;29.10;;;2.80;99.90;;;;;;5055666;28;20052;-80
2022/03/24 05:29:15;;;;;;;53.25;28.00;;;2.80;99.90;;;;;;5055689;28;20048;-80
2022/03/24 05:31:41;;;;;;;36.97;17.33;;;2.80;99.90;;;;;;5055682;28;20814;-79
2022/03/24 05:34:07;;;;;;;41.38;18.52;;;2.70;99.90;;;;;;5055587;28;20405;-79
2022/03/24 05:36:32;;;;;;;45.03;18.88;;;2.70;99.90;;;;;;5037987;28;20049;-79
2022/03/24 05:38:58;;;;;;;33.88;16.55;;;2.70;99.90;;;;;;5040258;28;20504;-79
2022/03/24 05:41:24;;;;;;;38.15;17.23;;;2.70;99.90;;;;;;5057799;28;20120;-80
2022/03/24 05:44:02;;;;;;;41.90;17.48;;;2.70;99.90;;;;;;5056437;28;20382;-79
2022/03/24 05:46:41;;;;;;;45.40;17.95;;;2.70;99.90;;;;;;5055313;28;20051;-79
2022/03/24 05:49:09;;;;;;;39.72;18.15;;;2.70;99.90;;;;;;5036793;28;20057;-79
2022/03/24 05:51:36;;;;;;;43.60;17.27;;;2.70;99.90;;;;;;5054461;28;20408;-80
2022/03/24 05:54:03;;;;;;;36.95;16.60;;;2.70;99.90;;;;;;5054996;28;20120;-77
2022/03/24 05:56:29;;;;;;;34.47;15.93;;;2.70;99.90;;;;;;5036794;28;20045;-79
2022/03/24 05:58:56;;;;;;;41.25;18.52;;;2.70;99.90;;;;;;5055076;28;20037;-74
2022/03/24 06:01:31;;;;;;;38.28;17.02;;;2.80;99.90;;;;;;5037374;28;20044;-78
2022/03/24 06:03:59;;;;;;;46.47;17.17;;;2.80;99.90;;;;;;5054848;28;20045;-79
2022/03/24 06:06:26;;;;;;;31.95;14.63;;;2.80;99.90;;;;;;5054315;28;20128;-78
2022/03/24 06:08:53;;;;;;;43.58;17.75;;;2.80;99.90;;;;;;5054473;28;20049;-78
2022/03/24 06:11:20;;;;;;;42.05;17.48;;;2.80;99.90;;;;;;5036971;28;20049;-79
2022/03/24 06:13:46;;;;;;;38.92;19.73;;;2.80;99.90;;;;;;5054685;28;20454;-78
2022/03/24 06:16:13;;;;;;;32.95;16.88;;;2.80;99.90;;;;;;5055047;28;20087;-76
2022/03/24 06:18:39;;;;;;;38.15;17.15;;;2.90;99.90;;;;;;5054637;28;20048;-78
2022/03/24 06:21:05;;;;;;;35.78;15.98;;;3.00;99.90;;;;;;5054400;28;20519;-79
2022/03/24 06:23:32;;;;;;;42.35;17.45;;;3.00;99.90;;;;;;5054123;28;20041;-79
2022/03/24 06:25:57;;;;;;;39.13;17.27;;;3.10;99.90;;;;;;5054617;28;20049;-79
2022/03/24 06:28:23;;;;;;;43.83;18.23;;;3.10;99.90;;;;;;5036501;28;20052;-79
2022/03/24 06:30:49;;;;;;;39.92;16.98;;;3.20;99.90;;;;;;5037664;28;20120;-79
2022/03/24 06:33:16;;;;;;;38.05;17.20;;;4.00;99.90;;;;;;5056013;28;20150;-79
2022/03/24 06:35:47;;;;;;;42.72;18.33;;;3.40;99.90;;;;;;5054473;28;20060;-79
2022/03/24 06:38:14;;;;;;;42.10;17.00;;;3.50;99.90;;;;;;5053851;28;20049;-78
2022/03/24 06:40:40;;;;;;;34.47;16.40;;;3.60;99.90;;;;;;5036353;28;20107;-79
2022/03/24 06:43:07;;;;;;;37.40;17.25;;;3.60;99.90;;;;;;5054988;28;20403;-79
2022/03/24 06:45:34;;;;;;;43.50;18.70;;;3.70;99.90;;;;;;5060320;28;20085;-79
2022/03/24 06:47:59;;;;;;;35.72;16.85;;;3.80;99.90;;;;;;5037238;28;20071;-81
2022/03/24 06:50:26;;;;;;;39.50;15.32;;;3.90;99.90;;;;;;5063871;28;20049;-80
2022/03/24 06:52:52;;;;;;;38.55;15.05;;;4.00;99.90;;;;;;5044731;28;20080;-78
2022/03/24 06:55:18;;;;;;;37.47;15.38;;;4.10;99.90;;;;;;5058125;28;20404;-78
2022/03/24 06:57:44;;;;;;;35.85;15.77;;;4.10;99.90;;;;;;5055575;28;20064;-76
2022/03/24 07:00:13;;;;;;;36.47;16.05;;;4.20;99.90;;;;;;5037793;28;20045;-79
2022/03/24 07:02:40;;;;;;;39.75;17.05;;;4.30;99.90;;;;;;5054688;28;20048;-78
2022/03/24 07:05:08;;;;;;;42.60;16.13;;;4.40;99.90;;;;;;5053313;28;20508;-76
2022/03/24 07:07:34;;;;;;;45.88;18.50;;;4.50;99.90;;;;;;5053816;28;20102;-77
2022/03/24 07:10:00;;;;;;;37.45;16.80;;;4.60;99.90;;;;;;5035099;28;20123;-76
2022/03/24 07:12:25;;;;;;;38.88;17.10;;;4.70;99.90;;;;;;5035199;28;20132;-77
2022/03/24 07:14:51;;;;;;;40.70;17.15;;;4.90;99.90;;;;;;5053443;28;20063;-77
2022/03/24 07:17:19;;;;;;;43.35;18.48;;;5.30;99.90;;;;;;5018873;28;20053;-78
2022/03/24 07:19:45;;;;;;;45.05;18.67;;;5.60;99.90;;;;;;5053440;28;20115;-77
2022/03/24 07:22:10;;;;;;;40.08;16.90;;;5.20;99.90;;;;;;5046478;28;20041;-76
2022/03/24 07:24:36;;;;;;;44.17;18.67;;;5.30;99.90;;;;;;5051372;28;20059;-76
2022/03/24 07:27:02;;;;;;;45.17;19.02;;;5.40;99.90;;;;;;5051832;28;20040;-79
2022/03/24 07:29:28;;;;;;;46.72;18.33;;;5.50;99.90;;;;;;5052198;28;20497;-84
2022/03/24 07:31:54;;;;;;;52.50;21.55;;;5.60;99.90;;;;;;5049104;28;20797;-75
2022/03/24 07:34:21;;;;;;;41.05;17.45;;;5.80;99.90;;;;;;5012248;28;20490;-74
2022/03/24 07:36:47;;;;;;;43.17;17.92;;;5.90;99.90;;;;;;5028623;28;20565;-74
2022/03/24 07:39:12;;;;;;;37.45;17.35;;;6.00;99.90;;;;;;5041289;28;20396;-76
2022/03/24 07:41:38;;;;;;;42.05;17.27;;;6.10;99.90;;;;;;5019449;28;20038;-78
2022/03/24 07:44:04;;;;;;;41.85;17.33;;;6.20;99.90;;;;;;5022600;28;20045;-79
2022/03/24 07:46:30;;;;;;;41.45;16.90;;;6.30;99.90;;;;;;5015688;28;20040;-77
2022/03/24 07:48:56;;;;;;;33.55;15.93;;;6.40;99.90;;;;;;5012351;28;20052;-75
2022/03/24 07:51:23;;;;;;;49.47;17.55;;;6.50;99.90;;;;;;5008793;28;20981;-75
2022/03/24 07:53:49;;;;;;;57.38;29.88;;;6.70;99.90;;;;;;5013196;28;20489;-74
2022/03/24 07:56:20;;;;;;;55.92;31.52;;;6.90;99.90;;;;;;5011674;28;20041;-73
2022/03/24 07:58:45;;;;;;;55.20;29.27;;;7.00;99.90;;;;;;5005585;28;20053;-75
2022/03/24 08:01:12;;;;;;;50.75;28.30;;;7.70;99.90;;;;;;5011629;28;20225;-74
2022/03/24 08:03:38;;;;;;;53.17;28.33;;;7.20;99.90;;;;;;5018091;23;20091;-76
2022/03/24 08:06:04;;;;;;;48.63;26.65;;;7.40;99.90;;;;;;5026708;28;20061;-73
2022/03/24 08:08:30;;;;;;;47.75;26.00;;;7.50;99.90;;;;;;5026885;28;20045;-74
2022/03/24 08:10:58;;;;;;;49.63;27.63;;;7.70;99.90;;;;;;5029512;28;20056;-75
2022/03/24 08:13:24;;;;;;;41.35;18.15;;;7.80;99.90;;;;;;5011715;28;20060;-73
2022/03/24 08:15:51;;;;;;;38.90;16.67;;;8.00;99.90;;;;;;5027714;28;20045;-75
2022/03/24 08:18:18;;;;;;;38.28;18.58;;;8.20;99.90;;;;;;5027645;28;20045;-75
2022/03/24 08:20:49;;;;;;;34.88;17.77;;;8.20;99.90;;;;;;5026918;28;20175;-74
2022/03/24 08:23:15;;;;;;;39.22;18.23;;;8.40;99.90;;;;;;5124234;23;20468;-70
2022/03/24 08:25:42;;;;;;;45.30;17.25;;;8.60;99.90;;;;;;5015703;23;20042;-78
2022/03/24 08:28:33;;;;;;;33.15;14.90;;;9.50;99.90;;;;;;5074522;22;20071;-80
2022/03/24 08:30:59;;;;;;;38.63;16.80;;;9.00;99.90;;;;;;4985453;28;20097;-84
2022/03/24 08:33:28;;;;;;;38.10;16.23;;;9.20;99.90;;;;;;5003279;28;20081;-77
2022/03/24 08:35:57;;;;;;;38.95;15.95;;;10.40;99.90;;;;;;4983693;28;20042;-72
2022/03/24 08:38:22;;;;;;;39.80;16.38;;;9.60;99.90;;;;;;4989056;28;20057;-70
2022/03/24 08:40:48;;;;;;;33.63;15.90;;;9.50;99.90;;;;;;4989191;28;20494;-69
2022/03/24 08:43:14;;;;;;;37.60;15.63;;;9.70;99.90;;;;;;4989262;28;20046;-70
2022/03/24 08:45:40;;;;;;;33.67;15.73;;;9.90;99.90;;;;;;4975233;28;20069;-70
2022/03/24 08:48:07;;;;;;;40.40;16.20;;;10.00;99.90;;;;;;4970434;28;20061;-69
2022/03/24 08:50:34;;;;;;;38.28;14.50;;;10.10;99.90;;;;;;4991706;28;20052;-71
2022/03/24 08:53:02;;;;;;;38.45;15.10;;;10.30;99.90;;;;;;4959883;28;20056;-69
2022/03/24 08:55:29;;;;;;;34.38;14.98;;;10.40;99.90;;;;;;4981134;28;20057;-71
2022/03/24 08:57:54;;;;;;;32.47;15.18;;;10.60;99.90;;;;;;4971532;28;20145;-69
2022/03/24 09:00:20;;;;;;;31.60;14.05;;;10.70;99.90;;;;;;4977182;28;20174;-71
2022/03/24 09:02:48;;;;;;;34.10;15.38;;;10.80;99.90;;;;;;4972641;28;20062;-71
2022/03/24 09:05:16;;;;;;;37.65;14.38;;;10.90;99.90;;;;;;4973572;28;21135;-73
2022/03/24 09:07:42;;;;;;;32.28;14.52;;;11.00;99.90;;;;;;4987640;28;20046;-71
2022/03/24 09:10:10;;;;;;;36.13;14.73;;;11.10;99.90;;;;;;4991475;28;20058;-72
2022/03/24 09:12:40;;;;;;;36.58;15.18;;;11.20;99.90;;;;;;4988352;28;20048;-72
2022/03/24 09:15:07;;;;;;;34.03;14.98;;;11.30;99.90;;;;;;4991266;28;20058;-71
2022/03/24 09:17:34;;;;;;;35.38;14.63;;;11.40;99.90;;;;;;4972753;28;20054;-72
2022/03/24 09:20:00;;;;;;;35.78;14.98;;;11.60;99.90;;;;;;4973879;28;20094;-72
2022/03/24 09:22:26;;;;;;;40.70;14.52;;;11.70;99.90;;;;;;4973225;28;20498;-71
2022/03/24 09:24:52;;;;;;;35.65;15.70;;;11.80;99.90;;;;;;4972815;28;20066;-73
2022/03/24 09:27:18;;;;;;;33.63;15.90;;;11.90;99.90;;;;;;4987546;28;20042;-73
2022/03/24 09:29:43;;;;;;;32.47;15.23;;;12.00;99.90;;;;;;4989412;28;20058;-73
2022/03/24 09:32:12;;;;;;;30.23;13.70;;;12.30;99.90;;;;;;4990211;28;20090;-75
2022/03/24 09:34:40;;;;;;;30.45;13.45;;;12.20;99.90;;;;;;4985853;28;20560;-72
2022/03/24 09:37:07;;;;;;;37.75;14.57;;;12.30;99.90;;;;;;4988191;28;20058;-73
2022/03/24 09:39:33;;;;;;;37.10;16.15;;;12.40;99.90;;;;;;4981330;28;20093;-75
2022/03/24 09:41:59;;;;;;;40.75;15.63;;;12.50;99.90;;;;;;4980240;28;20089;-74
2022/03/24 09:44:25;;;;;;;37.72;15.73;;;12.70;99.90;;;;;;5045591;23;20085;-75
2022/03/24 09:46:51;;;;;;;36.03;15.15;;;12.60;99.90;;;;;;4998541;28;20057;-74
2022/03/24 09:49:17;;;;;;;35.33;15.80;;;12.70;99.90;;;;;;4977862;28;20502;-75
2022/03/24 09:51:43;;;;;;;31.85;14.75;;;12.80;99.90;;;;;;5005640;28;20042;-74
2022/03/24 09:54:11;;;;;;;37.97;17.50;;;12.90;99.90;;;;;;4992600;28;20401;-74
2022/03/24 09:56:40;;;;;;;37.25;16.08;;;13.10;99.90;;;;;;4999279;28;20054;-75
2022/03/24 09:59:07;;;;;;;37.60;15.40;;;13.20;99.90;;;;;;4994592;28;20457;-72
2022/03/24 10:01:33;;;;;;;38.72;16.80;;;13.30;99.90;;;;;;5001790;28;20061;-72
2022/03/24 10:04:11;;;;;;;34.13;15.93;;;13.40;99.90;;;;;;5002669;28;20064;-75
2022/03/24 10:06:58;;;;;;;32.17;14.85;;;13.60;99.90;;;;;;5007707;28;20030;-79
2022/03/24 10:09:41;;;;;;;33.58;15.75;;;13.70;99.90;;;;;;5020269;28;20042;-77
2022/03/24 10:12:08;;;;;;;37.97;15.00;;;13.80;99.90;;;;;;5023662;28;20089;-77
2022/03/24 10:14:34;;;;;;;32.67;14.95;;;13.90;99.90;;;;;;5000342;28;20077;-77
2022/03/24 10:17:09;;;;;;;35.45;13.50;;;14.00;99.90;;;;;;4986548;28;20090;-76
2022/03/24 10:19:35;;;;;;;33.50;15.45;;;14.10;99.90;;;;;;5007815;28;20054;-75
2022/03/24 10:24:40;;;;;;;34.17;13.95;;;14.30;99.90;;;;;;4990637;28;20442;-80
2022/03/24 10:27:05;;;;;;;34.33;13.75;;;14.30;99.90;;;;;;4991039;28;20057;-80
2022/03/24 10:29:34;;;;;;;34.85;14.93;;;14.30;99.90;;;;;;4991362;28;20054;-79
2022/03/24 10:32:03;;;;;;;34.40;14.80;;;14.40;99.90;;;;;;4977162;28;20721;-76
2022/03/24 10:34:31;;;;;;;33.97;15.57;;;14.40;99.90;;;;;;4989668;28;20489;-77
2022/03/24 10:37:01;;;;;;;40.80;14.68;;;14.50;99.90;;;;;;4976141;28;20092;-76
2022/03/24 10:39:27;;;;;;;36.45;15.13;;;14.50;99.90;;;;;;5011899;28;20061;-77
2022/03/24 10:41:52;;;;;;;29.17;13.93;;;14.60;99.90;;;;;;5011079;28;20041;-75
2022/03/24 10:44:18;;;;;;;30.42;13.82;;;14.70;99.70;;;;;;4993497;28;20489;-76
2022/03/24 10:46:44;;;;;;;34.55;15.70;;;14.80;98.90;;;;;;5010863;28;20126;-77
2022/03/24 10:49:23;;;;;;;31.15;14.73;;;14.90;98.80;;;;;;5009627;28;20080;-76
2022/03/24 10:51:50;;;;;;;31.95;14.70;;;15.00;97.60;;;;;;4989918;28;20053;-78
2022/03/24 10:54:15;;;;;;;32.95;13.57;;;15.00;98.30;;;;;;5008730;28;20053;-76
2022/03/24 10:57:09;;;;;;;37.38;14.73;;;15.20;97.50;;;;;;4993535;28;20501;-75
2022/03/24 10:59:43;;;;;;;31.73;14.63;;;15.20;96.60;;;;;;4896798;29;20151;-75
2022/03/24 11:02:09;;;;;;;36.85;14.23;;;15.40;96.90;;;;;;4913310;29;20098;-76
2022/03/24 11:04:36;;;;;;;33.40;13.65;;;15.50;96.30;;;;;;4917427;29;20064;-76
2022/03/24 11:07:02;;;;;;;29.23;13.73;;;15.60;96.00;;;;;;4917140;29;20063;-75
2022/03/24 11:09:32;;;;;;;29.88;13.40;;;15.70;94.30;;;;;;4913148;29;20066;-77
2022/03/24 11:12:28;;;;;;;24.92;12.15;;;15.80;91.60;;;;;;4906162;29;20051;-79
2022/03/24 11:15:03;;;;;;;29.52;13.45;;;15.90;90.50;;;;;;4927051;29;20064;-76
2022/03/24 11:17:33;;;;;;;31.25;14.23;;;16.00;91.30;;;;;;4911085;29;20063;-80
2022/03/24 11:20:03;;;;;;;33.10;13.02;;;16.00;91.70;;;;;;4897059;29;20115;-78
2022/03/24 11:22:54;;;;;;;34.40;14.80;;;16.10;90.90;;;;;;4911791;29;20079;-78
2022/03/24 11:25:22;;;;;;;28.23;13.30;;;16.20;91.30;;;;;;4903026;29;20055;-77
2022/03/24 11:27:49;;;;;;;26.50;13.18;;;16.30;90.30;;;;;;4896700;29;20055;-75
2022/03/24 11:30:17;;;;;;;32.90;14.50;;;16.40;89.60;;;;;;4914171;29;20071;-78
2022/03/24 11:32:44;;;;;;;26.60;11.80;;;16.40;89.50;;;;;;4919773;29;20443;-78
2022/03/24 11:35:11;;;;;;;28.63;13.45;;;16.50;89.20;;;;;;4892318;29;20063;-78
2022/03/24 11:37:37;;;;;;;27.25;11.57;;;16.70;88.00;;;;;;4987223;28;20057;-79
2022/03/24 11:40:03;;;;;;;23.48;10.00;;;16.70;84.50;;;;;;5010661;28;20077;-78
2022/03/24 11:42:31;;;;;;;23.17;9.98;;;16.80;83.90;;;;;;5010352;28;20061;-78
2022/03/24 11:45:03;;;;;;;23.98;10.07;;;16.90;82.90;;;;;;5011158;28;20477;-77
2022/03/24 11:47:48;;;;;;;26.50;11.33;;;17.00;81.80;;;;;;5007355;28;20072;-78
2022/03/24 11:50:17;;;;;;;25.30;11.80;;;17.00;76.70;;;;;;5010832;28;20096;-75
2022/03/24 11:52:44;;;;;;;25.60;11.98;;;17.10;79.90;;;;;;5010103;28;20085;-78
2022/03/24 11:55:15;;;;;;;25.52;11.73;;;17.20;79.30;;;;;;4992414;28;20050;-76
2022/03/24 11:57:42;;;;;;;29.63;12.70;;;17.20;76.60;;;;;;4999767;28;20121;-80
2022/03/24 12:00:13;;;;;;;25.38;11.48;;;17.20;77.70;;;;;;5027379;28;20191;-80
2022/03/24 12:02:39;;;;;;;28.63;11.38;;;17.30;74.40;;;;;;5009236;28;20504;-80
2022/03/24 12:05:06;;;;;;;24.23;11.45;;;17.30;75.40;;;;;;4994610;28;20081;-78
2022/03/24 12:07:32;;;;;;;23.75;10.75;;;17.30;73.00;;;;;;4994705;28;20472;-77
2022/03/24 12:10:08;;;;;;;28.15;13.07;;;17.20;73.30;;;;;;5010507;28;20125;-78
2022/03/24 12:12:35;;;;;;;24.17;11.10;;;17.30;71.50;;;;;;4978650;28;20137;-76
2022/03/24 12:15:15;;;;;;;22.73;11.48;;;17.30;71.00;;;;;;5011115;28;20060;-79
2022/03/24 12:18:06;;;;;;;33.22;13.40;;;17.40;70.10;;;;;;4992528;28;20049;-77
2022/03/24 12:20:42;;;;;;;27.20;11.98;;;17.40;69.40;;;;;;5015335;28;20041;-80
2022/03/24 12:23:08;;;;;;;30.05;12.77;;;17.40;68.40;;;;;;4997724;28;20058;-75
2022/03/24 12:25:35;;;;;;;29.92;13.00;;;17.50;71.80;;;;;;5016985;28;20050;-75
2022/03/24 12:28:11;;;;;;;27.70;13.85;;;17.50;70.80;;;;;;5016969;28;20038;-78
2022/03/24 12:30:40;;;;;;;25.13;11.48;;;17.50;69.20;;;;;;4998569;28;20107;-79
2022/03/24 12:33:12;;;;;;;28.42;12.43;;;17.50;70.60;;;;;;4998293;28;20050;-75
2022/03/24 12:35:52;;;;;;;29.20;11.27;;;17.50;67.50;;;;;;4997623;28;20053;-74
2022/03/24 12:38:30;;;;;;;24.48;10.60;;;17.60;69.80;;;;;;4977933;28;20493;-78
2022/03/24 12:41:07;;;;;;;22.33;9.77;;;17.60;69.20;;;;;;5015458;28;20046;-79